sensor_id;sensor_type;location;lat;lon;timestamp;P1;durP1;ratioP1;P2;durP2;ratioP2
21000;SDS011;10658;50.920;12.238;2022-07-29T00:02:28;2.00;;;1.20;;
21000;SDS011;10658;50.920;12.238;2022-07-29T00:06:29;6.18;;;1.67;;
21000;SDS011;10658;50.920;12.238;2022-07-29T00:10:31;2.38;;;1.40;;
21000;SDS011;10658;50.920;12.238;2022-07-29T00:14:32;3.60;;;1.70;;
21000;SDS011;10658;50.920;12.238;2022-07-29T00:18:33;1.60;;;1.38;;
21000;SDS011;10658;50.920;12.238;2022-07-29T00:22:36;3.45;;;1.50;;
21000;SDS011;10658;50.920;12.238;2022-07-29T00:26:38;3.45;;;1.58;;
21000;SDS011;10658;50.920;12.238;2022-07-29T00:30:39;5.85;;;1.42;;
21000;SDS011;10658;50.920;12.238;2022-07-29T00:34:43;1.55;;;1.20;;
21000;SDS011;10658;50.920;12.238;2022-07-29T00:39:03;2.58;;;1.40;;
21000;SDS011;10658;50.920;12.238;2022-07-29T00:43:05;1.88;;;1.30;;
21000;SDS011;10658;50.920;12.238;2022-07-29T00:47:06;3.92;;;1.77;;
21000;SDS011;10658;50.920;12.238;2022-07-29T00:51:08;3.63;;;1.10;;
21000;SDS011;10658;50.920;12.238;2022-07-29T00:55:12;9.75;;;2.35;;
21000;SDS011;10658;50.920;12.238;2022-07-29T00:59:14;6.72;;;1.65;;
21000;SDS011;10658;50.920;12.238;2022-07-29T01:03:16;3.10;;;1.50;;
21000;SDS011;10658;50.920;12.238;2022-07-29T01:07:17;2.65;;;1.83;;
21000;SDS011;10658;50.920;12.238;2022-07-29T01:11:19;7.68;;;1.48;;
21000;SDS011;10658;50.920;12.238;2022-07-29T01:15:21;5.10;;;1.80;;
21000;SDS011;10658;50.920;12.238;2022-07-29T01:32:08;1.75;;;1.13;;
21000;SDS011;10658;50.920;12.238;2022-07-29T01:36:48;2.65;;;1.50;;
21000;SDS011;10658;50.920;12.238;2022-07-29T01:41:05;3.90;;;1.67;;
21000;SDS011;10658;50.920;12.238;2022-07-29T01:49:25;3.13;;;1.23;;
21000;SDS011;10658;50.920;12.238;2022-07-29T01:53:30;2.08;;;1.73;;
21000;SDS011;10658;50.920;12.238;2022-07-29T01:57:37;3.97;;;1.13;;
21000;SDS011;10658;50.920;12.238;2022-07-29T02:01:44;2.13;;;1.40;;
21000;SDS011;10658;50.920;12.238;2022-07-29T02:05:47;4.38;;;1.65;;
21000;SDS011;10658;50.920;12.238;2022-07-29T02:09:50;3.22;;;1.17;;
21000;SDS011;10658;50.920;12.238;2022-07-29T02:13:53;1.98;;;1.45;;
21000;SDS011;10658;50.920;12.238;2022-07-29T02:18:02;4.30;;;1.38;;
21000;SDS011;10658;50.920;12.238;2022-07-29T02:22:20;4.45;;;1.48;;
21000;SDS011;10658;50.920;12.238;2022-07-29T02:26:23;2.88;;;1.70;;
21000;SDS011;10658;50.920;12.238;2022-07-29T02:30:26;5.25;;;1.40;;
21000;SDS011;10658;50.920;12.238;2022-07-29T02:34:29;7.55;;;2.15;;
21000;SDS011;10658;50.920;12.238;2022-07-29T02:38:31;3.13;;;1.25;;
21000;SDS011;10658;50.920;12.238;2022-07-29T02:42:53;4.63;;;1.40;;
21000;SDS011;10658;50.920;12.238;2022-07-29T02:51:23;3.95;;;1.27;;
21000;SDS011;10658;50.920;12.238;2022-07-29T02:56:15;1.38;;;1.10;;
21000;SDS011;10658;50.920;12.238;2022-07-29T03:00:01;4.40;;;1.30;;
21000;SDS011;10658;50.920;12.238;2022-07-29T03:04:07;3.10;;;1.30;;
21000;SDS011;10658;50.920;12.238;2022-07-29T03:08:10;2.80;;;1.58;;
21000;SDS011;10658;50.920;12.238;2022-07-29T03:12:13;3.00;;;1.60;;
21000;SDS011;10658;50.920;12.238;2022-07-29T03:16:15;4.28;;;1.50;;
21000;SDS011;10658;50.920;12.238;2022-07-29T03:20:18;3.63;;;1.40;;
21000;SDS011;10658;50.920;12.238;2022-07-29T03:24:27;3.75;;;1.40;;
21000;SDS011;10658;50.920;12.238;2022-07-29T03:28:34;3.58;;;1.58;;
21000;SDS011;10658;50.920;12.238;2022-07-29T03:32:36;1.33;;;1.20;;
21000;SDS011;10658;50.920;12.238;2022-07-29T03:36:37;3.90;;;1.60;;
21000;SDS011;10658;50.920;12.238;2022-07-29T03:40:46;3.83;;;1.70;;
21000;SDS011;10658;50.920;12.238;2022-07-29T03:44:54;2.33;;;1.60;;
21000;SDS011;10658;50.920;12.238;2022-07-29T03:48:58;2.85;;;1.70;;
21000;SDS011;10658;50.920;12.238;2022-07-29T03:53:02;2.22;;;1.60;;
21000;SDS011;10658;50.920;12.238;2022-07-29T03:57:04;1.50;;;1.13;;
21000;SDS011;10658;50.920;12.238;2022-07-29T04:01:06;4.63;;;1.80;;
21000;SDS011;10658;50.920;12.238;2022-07-29T04:05:12;4.43;;;1.65;;
21000;SDS011;10658;50.920;12.238;2022-07-29T04:09:14;5.43;;;1.77;;
21000;SDS011;10658;50.920;12.238;2022-07-29T04:13:15;1.77;;;1.63;;
21000;SDS011;10658;50.920;12.238;2022-07-29T04:17:17;2.58;;;1.50;;
21000;SDS011;10658;50.920;12.238;2022-07-29T04:21:18;5.57;;;1.77;;
21000;SDS011;10658;50.920;12.238;2022-07-29T04:25:19;5.50;;;1.80;;
21000;SDS011;10658;50.920;12.238;2022-07-29T04:29:21;4.72;;;1.98;;
21000;SDS011;10658;50.920;12.238;2022-07-29T04:33:22;3.85;;;2.25;;
21000;SDS011;10658;50.920;12.238;2022-07-29T04:37:23;5.22;;;1.58;;
21000;SDS011;10658;50.920;12.238;2022-07-29T04:41:24;2.78;;;1.83;;
21000;SDS011;10658;50.920;12.238;2022-07-29T04:45:26;1.85;;;1.40;;
21000;SDS011;10658;50.920;12.238;2022-07-29T04:49:27;3.80;;;1.63;;
21000;SDS011;10658;50.920;12.238;2022-07-29T04:53:28;5.05;;;1.73;;
21000;SDS011;10658;50.920;12.238;2022-07-29T04:57:30;3.65;;;1.67;;
21000;SDS011;10658;50.920;12.238;2022-07-29T05:01:31;3.60;;;1.50;;
21000;SDS011;10658;50.920;12.238;2022-07-29T05:05:32;4.72;;;1.88;;
21000;SDS011;10658;50.920;12.238;2022-07-29T05:09:34;3.58;;;1.80;;
21000;SDS011;10658;50.920;12.238;2022-07-29T05:13:35;4.57;;;1.50;;
21000;SDS011;10658;50.920;12.238;2022-07-29T05:17:36;4.85;;;2.28;;
21000;SDS011;10658;50.920;12.238;2022-07-29T05:21:37;5.55;;;1.67;;
21000;SDS011;10658;50.920;12.238;2022-07-29T05:25:39;5.85;;;2.15;;
21000;SDS011;10658;50.920;12.238;2022-07-29T05:29:40;3.03;;;1.50;;
21000;SDS011;10658;50.920;12.238;2022-07-29T05:33:42;4.88;;;1.85;;
21000;SDS011;10658;50.920;12.238;2022-07-29T05:37:42;4.63;;;1.77;;
21000;SDS011;10658;50.920;12.238;2022-07-29T05:41:44;5.68;;;1.70;;
21000;SDS011;10658;50.920;12.238;2022-07-29T05:45:44;5.03;;;1.73;;
21000;SDS011;10658;50.920;12.238;2022-07-29T05:49:45;2.97;;;1.70;;
21000;SDS011;10658;50.920;12.238;2022-07-29T05:53:47;4.55;;;2.08;;
21000;SDS011;10658;50.920;12.238;2022-07-29T05:57:48;3.65;;;2.30;;
21000;SDS011;10658;50.920;12.238;2022-07-29T06:01:49;3.10;;;1.70;;
21000;SDS011;10658;50.920;12.238;2022-07-29T06:05:51;3.80;;;2.15;;
21000;SDS011;10658;50.920;12.238;2022-07-29T06:09:51;3.00;;;1.92;;
21000;SDS011;10658;50.920;12.238;2022-07-29T06:13:53;12.65;;;2.60;;
21000;SDS011;10658;50.920;12.238;2022-07-29T06:17:54;8.02;;;2.40;;
21000;SDS011;10658;50.920;12.238;2022-07-29T06:21:56;6.10;;;2.55;;
21000;SDS011;10658;50.920;12.238;2022-07-29T06:25:56;6.18;;;2.35;;
21000;SDS011;10658;50.920;12.238;2022-07-29T06:29:58;6.47;;;2.28;;
21000;SDS011;10658;50.920;12.238;2022-07-29T06:33:59;6.40;;;2.47;;
21000;SDS011;10658;50.920;12.238;2022-07-29T06:38:01;9.40;;;2.80;;
21000;SDS011;10658;50.920;12.238;2022-07-29T06:42:03;9.65;;;2.50;;
21000;SDS011;10658;50.920;12.238;2022-07-29T06:46:06;6.70;;;3.17;;
21000;SDS011;10658;50.920;12.238;2022-07-29T06:50:09;10.52;;;2.67;;
21000;SDS011;10658;50.920;12.238;2022-07-29T06:54:12;5.30;;;2.50;;
21000;SDS011;10658;50.920;12.238;2022-07-29T06:58:14;10.07;;;3.65;;
21000;SDS011;10658;50.920;12.238;2022-07-29T07:02:28;4.00;;;2.67;;
21000;SDS011;10658;50.920;12.238;2022-07-29T07:06:30;4.18;;;2.85;;
21000;SDS011;10658;50.920;12.238;2022-07-29T07:10:31;11.52;;;3.22;;
21000;SDS011;10658;50.920;12.238;2022-07-29T07:14:33;3.40;;;2.53;;
21000;SDS011;10658;50.920;12.238;2022-07-29T07:18:34;7.40;;;3.30;;
21000;SDS011;10658;50.920;12.238;2022-07-29T07:22:35;11.45;;;3.65;;
21000;SDS011;10658;50.920;12.238;2022-07-29T07:26:36;11.05;;;3.50;;
21000;SDS011;10658;50.920;12.238;2022-07-29T07:30:40;6.03;;;3.60;;
21000;SDS011;10658;50.920;12.238;2022-07-29T07:34:42;8.88;;;3.47;;
21000;SDS011;10658;50.920;12.238;2022-07-29T07:38:43;8.85;;;4.30;;
21000;SDS011;10658;50.920;12.238;2022-07-29T07:42:45;9.82;;;4.07;;
21000;SDS011;10658;50.920;12.238;2022-07-29T07:46:46;8.30;;;3.47;;
21000;SDS011;10658;50.920;12.238;2022-07-29T07:50:47;9.10;;;3.40;;
21000;SDS011;10658;50.920;12.238;2022-07-29T07:54:50;7.43;;;2.90;;
21000;SDS011;10658;50.920;12.238;2022-07-29T07:58:52;5.80;;;3.03;;
21000;SDS011;10658;50.920;12.238;2022-07-29T08:02:53;7.22;;;3.08;;
21000;SDS011;10658;50.920;12.238;2022-07-29T08:06:55;8.15;;;3.30;;
21000;SDS011;10658;50.920;12.238;2022-07-29T08:10:58;6.72;;;2.88;;
21000;SDS011;10658;50.920;12.238;2022-07-29T08:15:02;4.70;;;2.63;;
21000;SDS011;10658;50.920;12.238;2022-07-29T08:19:04;4.25;;;2.80;;
21000;SDS011;10658;50.920;12.238;2022-07-29T08:23:06;3.80;;;2.33;;
21000;SDS011;10658;50.920;12.238;2022-07-29T08:27:11;5.78;;;2.60;;
21000;SDS011;10658;50.920;12.238;2022-07-29T08:31:13;8.98;;;3.25;;
21000;SDS011;10658;50.920;12.238;2022-07-29T08:35:15;6.40;;;3.10;;
21000;SDS011;10658;50.920;12.238;2022-07-29T08:39:17;6.90;;;2.50;;
21000;SDS011;10658;50.920;12.238;2022-07-29T08:43:18;7.32;;;2.92;;
21000;SDS011;10658;50.920;12.238;2022-07-29T08:47:20;12.25;;;3.08;;
21000;SDS011;10658;50.920;12.238;2022-07-29T08:51:22;6.68;;;3.05;;
21000;SDS011;10658;50.920;12.238;2022-07-29T08:55:23;4.93;;;2.70;;
21000;SDS011;10658;50.920;12.238;2022-07-29T08:59:24;7.50;;;2.95;;
21000;SDS011;10658;50.920;12.238;2022-07-29T09:03:31;6.55;;;3.88;;
21000;SDS011;10658;50.920;12.238;2022-07-29T09:07:32;7.65;;;3.55;;
21000;SDS011;10658;50.920;12.238;2022-07-29T09:11:34;8.25;;;3.47;;
21000;SDS011;10658;50.920;12.238;2022-07-29T09:15:35;6.18;;;3.58;;
21000;SDS011;10658;50.920;12.238;2022-07-29T09:19:37;6.75;;;3.88;;
21000;SDS011;10658;50.920;12.238;2022-07-29T09:23:38;6.32;;;3.83;;
21000;SDS011;10658;50.920;12.238;2022-07-29T09:27:42;5.65;;;4.00;;
21000;SDS011;10658;50.920;12.238;2022-07-29T09:31:51;4.93;;;3.90;;
21000;SDS011;10658;50.920;12.238;2022-07-29T09:40:14;6.47;;;3.92;;
21000;SDS011;10658;50.920;12.238;2022-07-29T09:44:21;7.72;;;3.80;;
21000;SDS011;10658;50.920;12.238;2022-07-29T09:48:24;10.48;;;3.60;;
21000;SDS011;10658;50.920;12.238;2022-07-29T09:52:29;4.45;;;3.92;;
21000;SDS011;10658;50.920;12.238;2022-07-29T09:56:40;4.38;;;3.35;;
21000;SDS011;10658;50.920;12.238;2022-07-29T10:00:42;7.45;;;3.50;;
21000;SDS011;10658;50.920;12.238;2022-07-29T10:04:44;4.97;;;4.18;;
21000;SDS011;10658;50.920;12.238;2022-07-29T10:08:46;6.20;;;3.75;;
21000;SDS011;10658;50.920;12.238;2022-07-29T10:12:48;8.82;;;3.65;;
21000;SDS011;10658;50.920;12.238;2022-07-29T10:16:52;6.05;;;3.40;;
21000;SDS011;10658;50.920;12.238;2022-07-29T10:20:54;6.40;;;4.32;;
21000;SDS011;10658;50.920;12.238;2022-07-29T10:24:55;7.57;;;3.75;;
21000;SDS011;10658;50.920;12.238;2022-07-29T10:28:57;7.18;;;4.30;;
21000;SDS011;10658;50.920;12.238;2022-07-29T10:37:33;6.55;;;4.47;;
21000;SDS011;10658;50.920;12.238;2022-07-29T10:46:10;8.45;;;4.75;;
21000;SDS011;10658;50.920;12.238;2022-07-29T10:50:12;7.30;;;4.10;;
21000;SDS011;10658;50.920;12.238;2022-07-29T10:54:13;9.68;;;4.45;;
21000;SDS011;10658;50.920;12.238;2022-07-29T10:58:17;10.60;;;4.75;;
21000;SDS011;10658;50.920;12.238;2022-07-29T11:15:29;7.30;;;5.57;;
21000;SDS011;10658;50.920;12.238;2022-07-29T11:24:33;7.10;;;5.43;;
21000;SDS011;10658;50.920;12.238;2022-07-29T11:28:36;7.97;;;5.40;;
21000;SDS011;10658;50.920;12.238;2022-07-29T11:32:49;7.35;;;5.70;;
21000;SDS011;10658;50.920;12.238;2022-07-29T11:45:23;6.43;;;4.60;;
21000;SDS011;10658;50.920;12.238;2022-07-29T11:49:28;7.03;;;4.53;;
21000;SDS011;10658;50.920;12.238;2022-07-29T11:53:30;7.10;;;4.57;;
21000;SDS011;10658;50.920;12.238;2022-07-29T11:57:31;6.63;;;4.88;;
21000;SDS011;10658;50.920;12.238;2022-07-29T12:01:34;6.10;;;4.80;;
21000;SDS011;10658;50.920;12.238;2022-07-29T12:09:50;8.55;;;4.97;;
21000;SDS011;10658;50.920;12.238;2022-07-29T12:13:52;6.28;;;4.72;;
21000;SDS011;10658;50.920;12.238;2022-07-29T12:17:53;8.10;;;4.57;;
21000;SDS011;10658;50.920;12.238;2022-07-29T12:21:55;6.63;;;4.47;;
21000;SDS011;10658;50.920;12.238;2022-07-29T12:25:59;8.20;;;3.78;;
21000;SDS011;10658;50.920;12.238;2022-07-29T12:30:01;6.55;;;3.90;;
21000;SDS011;10658;50.920;12.238;2022-07-29T12:34:05;4.28;;;3.55;;
21000;SDS011;10658;50.920;12.238;2022-07-29T12:38:06;5.88;;;4.60;;
21000;SDS011;10658;50.920;12.238;2022-07-29T12:42:14;7.70;;;4.35;;
21000;SDS011;10658;50.920;12.238;2022-07-29T12:46:16;7.70;;;3.75;;
21000;SDS011;10658;50.920;12.238;2022-07-29T12:50:17;7.30;;;4.25;;
21000;SDS011;10658;50.920;12.238;2022-07-29T12:54:18;4.75;;;3.95;;
21000;SDS011;10658;50.920;12.238;2022-07-29T12:58:30;5.60;;;4.30;;
21000;SDS011;10658;50.920;12.238;2022-07-29T13:02:36;5.07;;;3.70;;
21000;SDS011;10658;50.920;12.238;2022-07-29T13:10:42;6.57;;;4.70;;
21000;SDS011;10658;50.920;12.238;2022-07-29T13:14:44;5.68;;;4.43;;
21000;SDS011;10658;50.920;12.238;2022-07-29T13:18:46;4.18;;;3.58;;
21000;SDS011;10658;50.920;12.238;2022-07-29T13:22:47;5.68;;;3.88;;
21000;SDS011;10658;50.920;12.238;2022-07-29T13:26:49;6.85;;;3.83;;
21000;SDS011;10658;50.920;12.238;2022-07-29T13:30:52;6.63;;;4.03;;
21000;SDS011;10658;50.920;12.238;2022-07-29T13:34:53;4.95;;;3.95;;
21000;SDS011;10658;50.920;12.238;2022-07-29T13:39:00;6.82;;;3.53;;
21000;SDS011;10658;50.920;12.238;2022-07-29T13:43:02;6.18;;;4.03;;
21000;SDS011;10658;50.920;12.238;2022-07-29T13:47:04;5.35;;;3.88;;
21000;SDS011;10658;50.920;12.238;2022-07-29T13:51:05;7.00;;;3.97;;
21000;SDS011;10658;50.920;12.238;2022-07-29T13:55:07;8.00;;;4.47;;
21000;SDS011;10658;50.920;12.238;2022-07-29T13:59:08;6.35;;;4.65;;
21000;SDS011;10658;50.920;12.238;2022-07-29T14:03:10;5.47;;;3.97;;
21000;SDS011;10658;50.920;12.238;2022-07-29T14:07:11;8.05;;;3.85;;
21000;SDS011;10658;50.920;12.238;2022-07-29T14:11:12;8.73;;;4.10;;
21000;SDS011;10658;50.920;12.238;2022-07-29T14:15:15;6.75;;;3.45;;
21000;SDS011;10658;50.920;12.238;2022-07-29T14:19:16;6.57;;;4.32;;
21000;SDS011;10658;50.920;12.238;2022-07-29T14:23:18;6.68;;;4.13;;
21000;SDS011;10658;50.920;12.238;2022-07-29T14:27:18;7.93;;;4.30;;
21000;SDS011;10658;50.920;12.238;2022-07-29T14:31:20;11.88;;;4.03;;
21000;SDS011;10658;50.920;12.238;2022-07-29T14:35:21;10.38;;;4.00;;
21000;SDS011;10658;50.920;12.238;2022-07-29T14:39:22;4.93;;;4.35;;
21000;SDS011;10658;50.920;12.238;2022-07-29T14:43:24;9.32;;;5.03;;
21000;SDS011;10658;50.920;12.238;2022-07-29T14:47:24;5.05;;;4.25;;
21000;SDS011;10658;50.920;12.238;2022-07-29T14:51:26;5.30;;;3.97;;
21000;SDS011;10658;50.920;12.238;2022-07-29T14:55:27;5.47;;;4.28;;
21000;SDS011;10658;50.920;12.238;2022-07-29T14:59:29;4.65;;;4.13;;
21000;SDS011;10658;50.920;12.238;2022-07-29T15:03:30;5.93;;;4.00;;
21000;SDS011;10658;50.920;12.238;2022-07-29T15:07:32;12.18;;;3.90;;
21000;SDS011;10658;50.920;12.238;2022-07-29T15:11:33;5.80;;;3.85;;
21000;SDS011;10658;50.920;12.238;2022-07-29T15:15:34;5.00;;;3.95;;
21000;SDS011;10658;50.920;12.238;2022-07-29T15:19:36;4.03;;;3.45;;
21000;SDS011;10658;50.920;12.238;2022-07-29T15:23:37;4.40;;;3.75;;
21000;SDS011;10658;50.920;12.238;2022-07-29T15:27:38;6.43;;;3.70;;
21000;SDS011;10658;50.920;12.238;2022-07-29T15:31:40;4.32;;;3.05;;
21000;SDS011;10658;50.920;12.238;2022-07-29T15:35:40;4.25;;;3.50;;
21000;SDS011;10658;50.920;12.238;2022-07-29T15:39:42;3.45;;;2.53;;
21000;SDS011;10658;50.920;12.238;2022-07-29T15:43:43;3.95;;;2.72;;
21000;SDS011;10658;50.920;12.238;2022-07-29T15:47:46;9.43;;;3.00;;
21000;SDS011;10658;50.920;12.238;2022-07-29T15:51:48;3.08;;;2.40;;
21000;SDS011;10658;50.920;12.238;2022-07-29T15:55:49;2.55;;;2.30;;
21000;SDS011;10658;50.920;12.238;2022-07-29T15:59:51;2.10;;;1.90;;
21000;SDS011;10658;50.920;12.238;2022-07-29T16:03:56;3.38;;;2.33;;
21000;SDS011;10658;50.920;12.238;2022-07-29T16:07:58;2.42;;;2.22;;
21000;SDS011;10658;50.920;12.238;2022-07-29T16:11:59;3.15;;;2.30;;
21000;SDS011;10658;50.920;12.238;2022-07-29T16:16:00;2.97;;;2.50;;
21000;SDS011;10658;50.920;12.238;2022-07-29T16:20:01;4.25;;;2.47;;
21000;SDS011;10658;50.920;12.238;2022-07-29T16:24:06;3.85;;;2.42;;
21000;SDS011;10658;50.920;12.238;2022-07-29T16:28:07;3.75;;;2.45;;
21000;SDS011;10658;50.920;12.238;2022-07-29T16:32:09;2.55;;;2.35;;
21000;SDS011;10658;50.920;12.238;2022-07-29T16:36:10;2.78;;;2.55;;
21000;SDS011;10658;50.920;12.238;2022-07-29T16:40:11;2.67;;;2.47;;
21000;SDS011;10658;50.920;12.238;2022-07-29T16:44:12;2.30;;;2.10;;
21000;SDS011;10658;50.920;12.238;2022-07-29T16:48:14;2.55;;;2.35;;
21000;SDS011;10658;50.920;12.238;2022-07-29T16:52:16;2.80;;;2.50;;
21000;SDS011;10658;50.920;12.238;2022-07-29T16:56:17;2.53;;;2.33;;
21000;SDS011;10658;50.920;12.238;2022-07-29T17:00:18;2.78;;;2.58;;
21000;SDS011;10658;50.920;12.238;2022-07-29T17:04:21;3.03;;;2.72;;
21000;SDS011;10658;50.920;12.238;2022-07-29T17:08:22;2.95;;;2.50;;
21000;SDS011;10658;50.920;12.238;2022-07-29T17:12:24;2.92;;;2.72;;
21000;SDS011;10658;50.920;12.238;2022-07-29T17:16:27;3.65;;;2.42;;
21000;SDS011;10658;50.920;12.238;2022-07-29T17:20:29;3.25;;;2.88;;
21000;SDS011;10658;50.920;12.238;2022-07-29T17:24:32;3.05;;;2.72;;
21000;SDS011;10658;50.920;12.238;2022-07-29T17:28:33;3.55;;;2.47;;
21000;SDS011;10658;50.920;12.238;2022-07-29T17:32:34;2.60;;;2.40;;
21000;SDS011;10658;50.920;12.238;2022-07-29T17:36:37;3.25;;;2.58;;
21000;SDS011;10658;50.920;12.238;2022-07-29T17:40:39;3.92;;;2.50;;
21000;SDS011;10658;50.920;12.238;2022-07-29T17:44:40;7.53;;;2.63;;
21000;SDS011;10658;50.920;12.238;2022-07-29T17:48:43;6.88;;;2.70;;
21000;SDS011;10658;50.920;12.238;2022-07-29T17:52:45;3.17;;;2.58;;
21000;SDS011;10658;50.920;12.238;2022-07-29T17:56:45;3.88;;;2.72;;
21000;SDS011;10658;50.920;12.238;2022-07-29T18:00:47;4.32;;;2.47;;
21000;SDS011;10658;50.920;12.238;2022-07-29T18:04:50;2.70;;;2.50;;
21000;SDS011;10658;50.920;12.238;2022-07-29T18:08:51;2.88;;;2.53;;
21000;SDS011;10658;50.920;12.238;2022-07-29T18:12:53;7.28;;;6.18;;
21000;SDS011;10658;50.920;12.238;2022-07-29T18:16:56;10.52;;;6.70;;
21000;SDS011;10658;50.920;12.238;2022-07-29T18:20:56;9.73;;;7.10;;
21000;SDS011;10658;50.920;12.238;2022-07-29T18:24:58;6.60;;;5.20;;
21000;SDS011;10658;50.920;12.238;2022-07-29T18:28:59;10.93;;;4.97;;
21000;SDS011;10658;50.920;12.238;2022-07-29T18:33:00;6.25;;;4.00;;
21000;SDS011;10658;50.920;12.238;2022-07-29T18:37:02;8.02;;;3.60;;
21000;SDS011;10658;50.920;12.238;2022-07-29T18:41:04;5.53;;;3.55;;
21000;SDS011;10658;50.920;12.238;2022-07-29T18:45:06;7.43;;;3.65;;
21000;SDS011;10658;50.920;12.238;2022-07-29T18:49:08;16.00;;;5.00;;
21000;SDS011;10658;50.920;12.238;2022-07-29T18:53:10;13.40;;;4.38;;
21000;SDS011;10658;50.920;12.238;2022-07-29T18:57:11;10.75;;;4.68;;
21000;SDS011;10658;50.920;12.238;2022-07-29T19:01:12;5.10;;;4.07;;
21000;SDS011;10658;50.920;12.238;2022-07-29T19:05:13;6.50;;;3.50;;
21000;SDS011;10658;50.920;12.238;2022-07-29T19:09:15;4.72;;;3.47;;
21000;SDS011;10658;50.920;12.238;2022-07-29T19:13:17;4.20;;;3.30;;
21000;SDS011;10658;50.920;12.238;2022-07-29T19:17:18;5.70;;;3.35;;
21000;SDS011;10658;50.920;12.238;2022-07-29T19:21:20;6.80;;;4.07;;
21000;SDS011;10658;50.920;12.238;2022-07-29T19:25:22;5.05;;;3.60;;
21000;SDS011;10658;50.920;12.238;2022-07-29T19:29:23;5.75;;;3.33;;
21000;SDS011;10658;50.920;12.238;2022-07-29T19:33:26;5.70;;;3.50;;
21000;SDS011;10658;50.920;12.238;2022-07-29T19:37:27;9.85;;;4.00;;
21000;SDS011;10658;50.920;12.238;2022-07-29T19:41:28;12.75;;;4.20;;
21000;SDS011;10658;50.920;12.238;2022-07-29T19:45:30;10.60;;;4.43;;
21000;SDS011;10658;50.920;12.238;2022-07-29T19:49:31;5.80;;;4.50;;
21000;SDS011;10658;50.920;12.238;2022-07-29T19:53:36;4.72;;;3.97;;
21000;SDS011;10658;50.920;12.238;2022-07-29T19:57:37;5.38;;;3.58;;
21000;SDS011;10658;50.920;12.238;2022-07-29T20:01:40;4.75;;;3.55;;
21000;SDS011;10658;50.920;12.238;2022-07-29T20:05:40;4.57;;;4.00;;
21000;SDS011;10658;50.920;12.238;2022-07-29T20:09:42;4.20;;;3.78;;
21000;SDS011;10658;50.920;12.238;2022-07-29T20:13:45;6.30;;;3.83;;
21000;SDS011;10658;50.920;12.238;2022-07-29T20:17:46;7.63;;;3.58;;
21000;SDS011;10658;50.920;12.238;2022-07-29T20:21:48;4.28;;;3.55;;
21000;SDS011;10658;50.920;12.238;2022-07-29T20:25:50;4.60;;;3.38;;
21000;SDS011;10658;50.920;12.238;2022-07-29T20:29:51;3.92;;;3.10;;
21000;SDS011;10658;50.920;12.238;2022-07-29T20:33:53;3.97;;;3.50;;
21000;SDS011;10658;50.920;12.238;2022-07-29T20:37:54;5.10;;;3.47;;
21000;SDS011;10658;50.920;12.238;2022-07-29T20:41:56;3.40;;;3.10;;
21000;SDS011;10658;50.920;12.238;2022-07-29T20:45:58;5.07;;;3.22;;
21000;SDS011;10658;50.920;12.238;2022-07-29T20:49:59;3.42;;;3.10;;
21000;SDS011;10658;50.920;12.238;2022-07-29T20:54:01;3.17;;;2.88;;
21000;SDS011;10658;50.920;12.238;2022-07-29T20:58:03;4.88;;;3.35;;
21000;SDS011;10658;50.920;12.238;2022-07-29T21:02:04;3.70;;;3.30;;
21000;SDS011;10658;50.920;12.238;2022-07-29T21:06:06;6.28;;;3.92;;
21000;SDS011;10658;50.920;12.238;2022-07-29T21:10:08;8.73;;;4.43;;
21000;SDS011;10658;50.920;12.238;2022-07-29T21:14:11;5.63;;;4.13;;
21000;SDS011;10658;50.920;12.238;2022-07-29T21:18:35;7.93;;;4.40;;
21000;SDS011;10658;50.920;12.238;2022-07-29T21:22:36;6.07;;;4.45;;
21000;SDS011;10658;50.920;12.238;2022-07-29T21:26:37;8.93;;;3.95;;
21000;SDS011;10658;50.920;12.238;2022-07-29T21:30:39;3.60;;;3.30;;
21000;SDS011;10658;50.920;12.238;2022-07-29T21:34:40;5.65;;;3.45;;
21000;SDS011;10658;50.920;12.238;2022-07-29T21:38:41;5.38;;;3.75;;
21000;SDS011;10658;50.920;12.238;2022-07-29T21:42:42;5.22;;;3.38;;
21000;SDS011;10658;50.920;12.238;2022-07-29T21:46:44;4.50;;;3.60;;
21000;SDS011;10658;50.920;12.238;2022-07-29T21:50:46;4.30;;;3.90;;
21000;SDS011;10658;50.920;12.238;2022-07-29T21:54:48;5.20;;;3.40;;
21000;SDS011;10658;50.920;12.238;2022-07-29T22:03:07;4.75;;;3.75;;
21000;SDS011;10658;50.920;12.238;2022-07-29T22:07:08;6.72;;;3.67;;
21000;SDS011;10658;50.920;12.238;2022-07-29T22:11:10;6.43;;;4.30;;
21000;SDS011;10658;50.920;12.238;2022-07-29T22:15:11;4.28;;;3.67;;
21000;SDS011;10658;50.920;12.238;2022-07-29T22:19:13;4.22;;;3.17;;
21000;SDS011;10658;50.920;12.238;2022-07-29T22:23:14;4.15;;;3.75;;
21000;SDS011;10658;50.920;12.238;2022-07-29T22:27:17;4.72;;;3.90;;
21000;SDS011;10658;50.920;12.238;2022-07-29T22:31:18;4.70;;;3.17;;
21000;SDS011;10658;50.920;12.238;2022-07-29T22:35:19;5.25;;;4.03;;
21000;SDS011;10658;50.920;12.238;2022-07-29T22:39:21;6.45;;;3.13;;
21000;SDS011;10658;50.920;12.238;2022-07-29T22:43:22;3.40;;;2.92;;
21000;SDS011;10658;50.920;12.238;2022-07-29T22:47:24;5.78;;;3.90;;
21000;SDS011;10658;50.920;12.238;2022-07-29T22:51:26;3.45;;;3.15;;
21000;SDS011;10658;50.920;12.238;2022-07-29T22:55:28;5.05;;;4.03;;
21000;SDS011;10658;50.920;12.238;2022-07-29T22:59:29;3.80;;;3.45;;
21000;SDS011;10658;50.920;12.238;2022-07-29T23:03:31;3.65;;;3.35;;
21000;SDS011;10658;50.920;12.238;2022-07-29T23:07:32;3.75;;;2.85;;
21000;SDS011;10658;50.920;12.238;2022-07-29T23:11:33;5.03;;;3.92;;
21000;SDS011;10658;50.920;12.238;2022-07-29T23:15:35;3.83;;;3.17;;
21000;SDS011;10658;50.920;12.238;2022-07-29T23:19:38;4.43;;;2.88;;
21000;SDS011;10658;50.920;12.238;2022-07-29T23:23:39;5.18;;;3.53;;
21000;SDS011;10658;50.920;12.238;2022-07-29T23:27:40;5.47;;;3.13;;
21000;SDS011;10658;50.920;12.238;2022-07-29T23:31:42;3.55;;;3.25;;
21000;SDS011;10658;50.920;12.238;2022-07-29T23:35:44;3.53;;;3.05;;
21000;SDS011;10658;50.920;12.238;2022-07-29T23:39:46;3.50;;;3.20;;
21000;SDS011;10658;50.920;12.238;2022-07-29T23:43:48;7.80;;;3.47;;
21000;SDS011;10658;50.920;12.238;2022-07-29T23:47:49;7.72;;;3.88;;
21000;SDS011;10658;50.920;12.238;2022-07-29T23:51:50;5.03;;;4.00;;
21000;SDS011;10658;50.920;12.238;2022-07-29T23:55:52;6.72;;;4.70;;
21000;SDS011;10658;50.920;12.238;2022-07-29T23:59:54;3.88;;;3.45;;
